Time;durP1;ratioP1;P1;durP2;ratioP2;P2;SDS_P1;SDS_P2;PMS_P1;PMS_P2;Temp;Humidity;BMP_temperature;BMP_pressure;BME280_temperature;BME280_humidity;BME280_pressure;Samples;Min_cycle;Max_cycle;Signal;HPM_P1;HPM_P2
2023/07/21 00:01:43;;;;;;;2.60;1.00;;;;;;;20.84;47.53;99868.66;10498114;28;20448;-73
2023/07/21 00:06:45;;;;;;;1.30;0.90;;;;;;;20.85;47.37;99853.09;10495477;28;20060;-73
2023/07/21 00:11:46;;;;;;;3.30;1.50;;;;;;;20.86;47.59;99849.28;10502041;28;20103;-73
2023/07/21 00:16:53;;;;;;;5.50;1.10;;;;;;;20.82;47.77;99848.16;10499532;28;20424;-76
2023/07/21 00:21:55;;;;;;;2.53;1.20;;;;;;;20.73;47.73;99854.03;10497403;28;20093;-73
2023/07/21 00:26:58;;;;;;;1.95;1.13;;;;;;;20.61;47.84;99850.63;10500971;28;20044;-73
2023/07/21 00:32:01;;;;;;;2.35;1.10;;;;;;;20.34;48.65;99842.31;10498258;28;20108;-74
2023/07/21 00:37:04;;;;;;;3.90;1.05;;;;;;;20.37;48.52;99837.19;10498572;28;20052;-72
2023/07/21 00:42:06;;;;;;;7.95;0.90;;;;;;;20.40;48.48;99827.69;10497474;28;20348;-72
2023/07/21 00:47:07;;;;;;;4.28;1.02;;;;;;;20.36;48.85;99824.63;10500868;28;20063;-75
2023/07/21 00:52:12;;;;;;;1.60;0.80;;;;;;;20.25;49.22;99832.94;10496475;28;20253;-74
2023/07/21 00:57:16;;;;;;;2.20;1.20;;;;;;;20.23;49.11;99825.00;10497079;28;20135;-74
2023/07/21 01:02:21;;;;;;;4.40;0.97;;;;;;;20.39;48.82;99824.09;10503664;28;20272;-75
2023/07/21 01:07:22;;;;;;;1.92;1.00;;;;;;;20.47;48.77;99816.56;10505912;28;20040;-72
2023/07/21 01:12:27;;;;;;;3.25;1.00;;;;;;;20.49;48.56;99814.41;10505228;28;20053;-74
2023/07/21 01:17:29;;;;;;;1.33;0.80;;;;;;;20.57;48.55;99806.56;10506446;28;20059;-73
2023/07/21 01:22:50;;;;;;;1.08;0.90;;;;;;;20.58;48.62;99804.69;10505660;28;20051;-72
2023/07/21 01:27:53;;;;;;;1.63;0.63;;;;;;;20.43;48.96;99813.50;10503852;28;21067;-75
2023/07/21 01:33:00;;;;;;;2.28;0.80;;;;;;;20.53;48.96;99818.28;10502963;28;20544;-75
2023/07/21 01:38:03;;;;;;;1.75;1.00;;;;;;;20.60;48.58;99802.56;10504190;28;20411;-72
2023/07/21 01:43:04;;;;;;;4.78;1.10;;;;;;;20.66;48.63;99792.53;10505809;28;20052;-73
2023/07/21 01:48:07;;;;;;;1.65;1.00;;;;;;;20.62;48.82;99800.41;10501372;28;20094;-75
2023/07/21 01:53:13;;;;;;;3.47;1.00;;;;;;;20.40;49.70;99824.97;10505238;28;20032;-76
2023/07/21 01:58:18;;;;;;;3.92;1.25;;;;;;;20.06;51.10;99851.50;10520176;28;20075;-74
2023/07/21 02:03:21;;;;;;;7.32;1.27;;;;;;;19.30;53.70;99833.66;10503851;28;20419;-74
2023/07/21 02:08:22;;;;;;;5.20;1.60;;;;;;;18.67;56.19;99846.34;10503123;28;20046;-74
2023/07/21 02:13:24;;;;;;;4.00;1.45;;;;;;;18.36;58.39;99850.34;10500611;28;20071;-74
2023/07/21 02:18:25;;;;;;;3.53;1.83;;;;;;;18.23;59.38;99841.38;10504522;28;20119;-74
2023/07/21 02:23:26;;;;;;;3.35;1.92;;;;;;;18.25;60.01;99830.25;10498544;28;20116;-77
2023/07/21 02:28:28;;;;;;;4.80;2.45;;;;;;;17.94;61.65;99817.88;10502144;28;20119;-75
2023/07/21 02:33:30;;;;;;;2.40;1.77;;;;;;;17.93;61.94;99816.22;10505726;28;20056;-77
2023/07/21 02:38:32;;;;;;;4.10;1.85;;;;;;;17.99;62.25;99804.38;10503250;28;20115;-77
2023/07/21 02:43:33;;;;;;;5.65;2.78;;;;;;;18.09;62.28;99795.63;10501549;28;20051;-77
2023/07/21 02:48:35;;;;;;;4.47;2.53;;;;;;;17.98;63.16;99791.84;10503145;28;20062;-76
2023/07/21 02:53:36;;;;;;;5.30;2.35;;;;;;;18.00;63.75;99782.38;10504152;28;20318;-76
2023/07/21 02:58:38;;;;;;;5.30;2.25;;;;;;;18.01;64.02;99773.19;10500121;28;20481;-76
2023/07/21 03:03:39;;;;;;;4.90;2.35;;;;;;;18.08;64.07;99755.91;10500510;28;20115;-76
2023/07/21 03:08:41;;;;;;;3.45;2.65;;;;;;;18.10;64.11;99764.63;10505592;28;20102;-77
2023/07/21 03:13:46;;;;;;;7.15;2.72;;;;;;;18.11;64.17;99763.56;10501422;28;20104;-76
2023/07/21 03:18:47;;;;;;;4.00;2.75;;;;;;;17.92;64.79;99757.47;10502002;28;20332;-76
2023/07/21 03:23:48;;;;;;;3.22;2.72;;;;;;;17.99;64.56;99760.84;10501639;28;20048;-76
2023/07/21 03:28:51;;;;;;;4.68;2.80;;;;;;;18.10;64.73;99764.63;10508374;28;20096;-76
2023/07/21 03:33:52;;;;;;;6.60;2.95;;;;;;;18.04;65.06;99767.25;10506280;28;20409;-77
2023/07/21 03:38:54;;;;;;;6.65;3.35;;;;;;;18.06;65.53;99758.84;10500868;28;20348;-79
2023/07/21 03:43:55;;;;;;;6.38;3.28;;;;;;;18.23;65.39;99753.50;10505166;28;20048;-78
2023/07/21 03:48:57;;;;;;;4.60;3.38;;;;;;;18.32;65.36;99760.19;10502503;28;20104;-76
2023/07/21 03:53:58;;;;;;;7.45;3.30;;;;;;;18.36;65.39;99765.97;10500654;28;20040;-79
2023/07/21 03:58:59;;;;;;;6.35;3.08;;;;;;;18.21;66.05;99761.88;10502601;28;20325;-78
2023/07/21 04:04:02;;;;;;;11.45;3.35;;;;;;;18.28;65.87;99769.91;10501805;28;20044;-78
2023/07/21 04:09:03;;;;;;;10.98;3.30;;;;;;;18.29;66.29;99770.75;10500599;28;20052;-77
2023/07/21 04:14:05;;;;;;;4.60;2.97;;;;;;;18.36;66.18;99774.97;10498851;28;20082;-79
2023/07/21 04:19:06;;;;;;;4.95;3.33;;;;;;;18.37;66.42;99771.19;10504286;28;20127;-78
2023/07/21 04:24:08;;;;;;;5.25;3.40;;;;;;;18.39;66.30;99776.41;10499771;28;20371;-79
2023/07/21 04:29:10;;;;;;;6.28;3.88;;;;;;;18.43;66.34;99781.09;10498118;28;20351;-77
2023/07/21 04:34:26;;;;;;;6.50;3.90;;;;;;;18.44;66.42;99781.91;10498120;28;20044;-77
2023/07/21 04:39:27;;;;;;;4.18;3.17;;;;;;;18.51;66.48;99782.63;10508004;28;20048;-76
2023/07/21 04:44:28;;;;;;;3.67;2.83;;;;;;;18.45;66.38;99780.06;10506085;28;20063;-77
2023/07/21 04:49:30;;;;;;;5.22;3.55;;;;;;;18.36;66.72;99782.31;10506251;28;20040;-74
2023/07/21 04:54:32;;;;;;;3.28;2.80;;;;;;;18.31;66.45;99782.22;10479446;28;20431;-76
2023/07/21 04:59:33;;;;;;;4.10;3.53;;;;;;;18.31;66.56;99787.66;10508243;28;20091;-77
2023/07/21 05:04:35;;;;;;;6.07;2.83;;;;;;;18.22;66.67;99785.28;10506592;28;20044;-75
2023/07/21 05:09:36;;;;;;;5.57;2.97;;;;;;;18.26;66.37;99780.19;10506550;28;20050;-77
2023/07/21 05:14:38;;;;;;;5.43;2.95;;;;;;;18.31;66.03;99782.22;10507553;28;20101;-73
2023/07/21 05:19:40;;;;;;;4.32;2.85;;;;;;;18.32;65.99;99781.97;10502388;28;20123;-73
2023/07/21 05:24:41;;;;;;;4.38;3.00;;;;;;;18.43;65.67;99781.09;10501266;28;20112;-73
2023/07/21 05:29:43;;;;;;;4.63;2.75;;;;;;;18.55;65.54;99772.91;10503352;28;20041;-73
2023/07/21 05:34:48;;;;;;;3.83;2.80;;;;;;;18.64;65.10;99773.31;10505666;28;20349;-73
2023/07/21 05:39:49;;;;;;;3.78;2.63;;;;;;;18.65;65.32;99774.97;10485456;28;20082;-74
2023/07/21 05:44:50;;;;;;;3.08;2.15;;;;;;;18.76;65.39;99771.41;10502437;28;20079;-72
2023/07/21 05:49:56;;;;;;;7.93;2.85;;;;;;;18.88;65.19;99771.38;10505098;28;20245;-71
2023/07/21 05:55:00;;;;;;;5.40;2.92;;;;;;;19.04;65.10;99769.72;10501874;28;20121;-73
2023/07/21 06:00:04;;;;;;;3.92;2.47;;;;;;;19.15;64.73;99768.00;10501398;28;20060;-74
2023/07/21 06:05:06;;;;;;;3.28;2.15;;;;;;;19.24;64.65;99761.06;10498789;28;20161;-76
2023/07/21 06:10:07;;;;;;;2.40;2.10;;;;;;;19.35;64.45;99756.59;10505897;28;20052;-76
2023/07/21 06:15:09;;;;;;;5.05;2.83;;;;;;;19.41;64.29;99761.91;10499263;28;20071;-73
2023/07/21 06:20:12;;;;;;;2.72;2.10;;;;;;;19.53;63.97;99767.25;10500921;28;20187;-74
2023/07/21 06:25:13;;;;;;;3.97;2.38;;;;;;;19.56;63.99;99766.75;10509249;28;20380;-75
2023/07/21 06:30:15;;;;;;;4.03;2.00;;;;;;;19.73;63.41;99764.03;10503052;28;20053;-74
2023/07/21 06:35:16;;;;;;;3.63;2.25;;;;;;;19.87;63.10;99763.69;10502140;28;21279;-76
2023/07/21 06:40:19;;;;;;;3.42;2.55;;;;;;;19.97;62.71;99761.09;10500880;28;20071;-73
2023/07/21 06:45:21;;;;;;;3.90;2.40;;;;;;;20.00;62.71;99774.19;10502028;28;20055;-74
2023/07/21 06:50:22;;;;;;;3.22;2.20;;;;;;;19.96;62.74;99776.63;10502329;28;21696;-75
2023/07/21 06:55:24;;;;;;;5.10;2.72;;;;;;;19.99;62.26;99776.13;10498211;28;20294;-74
2023/07/21 07:00:25;;;;;;;4.13;2.53;;;;;;;19.82;62.66;99788.97;10505154;28;20249;-74
2023/07/21 07:05:26;;;;;;;3.83;1.83;;;;;;;19.58;62.82;99794.59;10501214;28;20333;-73
2023/07/21 07:10:28;;;;;;;2.90;2.03;;;;;;;19.52;63.09;99797.50;10497711;28;20049;-75
2023/07/21 07:15:29;;;;;;;6.43;2.40;;;;;;;19.68;62.54;99785.72;10500108;28;20344;-73
2023/07/21 07:20:31;;;;;;;5.13;2.47;;;;;;;19.90;62.34;99788.53;10504812;28;20298;-73
2023/07/21 07:25:32;;;;;;;8.50;2.00;;;;;;;20.14;61.86;99772.78;10506004;28;20104;-74
2023/07/21 07:30:34;;;;;;;4.10;2.30;;;;;;;20.43;61.25;99783.47;10498475;28;20052;-75
2023/07/21 07:35:35;;;;;;;4.20;2.13;;;;;;;20.57;61.15;99786.63;10506106;28;20059;-75
2023/07/21 07:40:37;;;;;;;2.35;1.83;;;;;;;20.93;60.00;99776.13;10498750;28;20111;-73
2023/07/21 07:45:40;;;;;;;3.53;2.00;;;;;;;21.11;59.50;99785.84;10496913;28;20052;-74
2023/07/21 07:50:42;;;;;;;4.70;1.85;;;;;;;21.31;59.32;99790.69;10497729;28;20047;-75
2023/07/21 07:55:44;;;;;;;3.28;0.90;;;;;;;21.62;58.24;99790.94;10503009;28;20060;-75
2023/07/21 08:00:47;;;;;;;2.28;1.10;;;;;;;21.85;57.27;99790.53;10498145;28;20143;-75
2023/07/21 08:05:50;;;;;;;3.25;1.73;;;;;;;22.09;57.05;99790.94;10499629;28;20417;-75
2023/07/21 08:10:52;;;;;;;3.67;2.13;;;;;;;22.25;56.63;99791.88;10498974;28;20032;-74
2023/07/21 08:15:53;;;;;;;3.47;1.25;;;;;;;22.48;55.81;99790.59;10499949;28;20072;-73
2023/07/21 08:20:55;;;;;;;1.67;1.58;;;;;;;22.67;55.08;99788.19;10489967;28;20052;-72
2023/07/21 08:25:57;;;;;;;1.70;1.30;;;;;;;22.87;54.67;99794.81;10500181;28;20079;-73
2023/07/21 08:30:58;;;;;;;3.05;1.70;;;;;;;22.91;54.08;99779.47;10503093;28;20259;-76
2023/07/21 08:36:00;;;;;;;3.20;1.00;;;;;;;23.03;53.68;99790.22;10498604;28;20052;-74
2023/07/21 08:41:12;;;;;;;2.67;1.45;;;;;;;22.94;53.46;99779.72;10495588;28;20452;-74
2023/07/21 08:46:15;;;;;;;3.88;1.30;;;;;;;23.12;53.03;99785.81;10499690;28;20055;-76
2023/07/21 08:51:17;;;;;;;6.38;1.40;;;;;;;23.28;53.00;99779.25;10492989;28;20052;-75
2023/07/21 08:56:18;;;;;;;1.83;1.20;;;;;;;23.45;52.03;99784.44;10496685;28;20060;-75
2023/07/21 09:01:19;;;;;;;3.65;1.00;;;;;;;23.44;52.60;99790.22;10495380;28;20123;-79
2023/07/21 09:06:21;;;;;;;2.03;1.02;;;;;;;23.45;52.49;99789.13;10498435;28;20056;-76
2023/07/21 09:11:24;;;;;;;1.40;1.10;;;;;;;23.53;51.69;99794.03;10496092;28;20076;-79
2023/07/21 09:16:26;;;;;;;7.10;1.45;;;;;;;23.64;51.89;99790.19;10493133;28;20051;-77
2023/07/21 09:21:28;;;;;;;2.13;1.25;;;;;;;23.84;51.20;99797.59;10504100;28;20060;-76
2023/07/21 09:26:30;;;;;;;1.85;1.00;;;;;;;23.93;51.26;99801.44;10508214;28;20068;-78
2023/07/21 09:31:33;;;;;;;2.22;1.02;;;;;;;24.13;50.74;99799.72;10501740;28;20091;-77
2023/07/21 09:36:35;;;;;;;3.42;0.98;;;;;;;24.15;50.09;99790.09;10480131;28;20086;-76
2023/07/21 09:41:37;;;;;;;1.60;1.20;;;;;;;24.29;49.85;99793.06;10504798;28;20057;-75
2023/07/21 09:46:41;;;;;;;2.35;0.98;;;;;;;24.45;48.94;99782.03;10501844;28;20040;-78
2023/07/21 09:51:48;;;;;;;1.13;1.00;;;;;;;23.99;49.88;99783.00;10504112;28;20488;-81
2023/07/21 09:56:53;;;;;;;3.28;1.25;;;;;;;24.43;49.84;99765.81;10505568;28;20063;-76
2023/07/21 10:01:54;;;;;;;1.63;0.88;;;;;;;24.71;48.49;99772.56;10505459;28;20070;-79
2023/07/21 10:06:58;;;;;;;4.75;1.45;;;;;;;24.99;47.77;99789.41;10501941;28;20376;-78
2023/07/21 10:12:08;;;;;;;2.53;1.20;;;;;;;25.45;47.88;99780.00;10504246;28;20047;-77
2023/07/21 10:17:11;;;;;;;3.13;1.10;;;;;;;25.74;46.93;99771.75;10496580;28;20063;-77
2023/07/21 10:22:24;;;;;;;1.83;0.95;;;;;;;25.89;46.06;99762.50;10505014;28;20072;-77
2023/07/21 10:27:26;;;;;;;2.10;0.75;;;;;;;26.16;45.78;99767.44;10501354;28;20063;-77
2023/07/21 10:32:28;;;;;;;2.08;0.70;;;;;;;26.09;44.59;99773.31;10500399;28;20288;-77
2023/07/21 10:37:30;;;;;;;1.88;0.70;;;;;;;25.65;44.40;99760.56;10504017;28;20044;-78
2023/07/21 10:42:31;;;;;;;2.22;0.98;;;;;;;25.75;43.55;99767.03;10503084;28;20388;-76
2023/07/21 10:47:33;;;;;;;1.50;0.93;;;;;;;25.57;43.94;99765.84;10500819;28;20460;-76
2023/07/21 10:52:34;;;;;;;3.33;0.75;;;;;;;25.64;43.66;99763.59;10503435;28;20048;-76
2023/07/21 10:57:36;;;;;;;2.58;1.00;;;;;;;25.55;42.83;99762.56;10503576;28;20067;-78
2023/07/21 11:02:38;;;;;;;2.67;0.77;;;;;;;25.49;42.56;99770.06;10502117;28;20047;-77
2023/07/21 11:07:40;;;;;;;2.58;0.93;;;;;;;25.33;42.71;99772.13;10501259;28;20292;-76
2023/07/21 11:12:48;;;;;;;1.10;0.60;;;;;;;25.42;43.65;99764.09;10503033;28;20441;-76
2023/07/21 11:17:59;;;;;;;1.48;0.70;;;;;;;25.72;42.94;99757.44;10501254;28;20131;-75
2023/07/21 11:23:01;;;;;;;1.02;0.50;;;;;;;25.43;42.81;99760.22;10500089;28;20040;-75
2023/07/21 11:28:06;;;;;;;2.33;0.47;;;;;;;25.08;42.44;99745.63;10500725;28;20104;-78
2023/07/21 11:33:12;;;;;;;2.97;0.80;;;;;;;24.84;42.52;99749.13;10486507;28;20050;-76
2023/07/21 11:38:14;;;;;;;0.88;0.43;;;;;;;25.00;42.20;99749.81;10501798;28;20036;-78
2023/07/21 11:43:16;;;;;;;3.30;0.60;;;;;;;25.36;41.54;99748.75;10506912;28;20123;-79
2023/07/21 11:48:18;;;;;;;0.82;0.50;;;;;;;25.34;41.58;99738.00;10505273;28;20099;-76
2023/07/21 11:53:22;;;;;;;2.13;0.68;;;;;;;25.28;42.07;99736.41;10500768;28;20055;-73
2023/07/21 11:58:25;;;;;;;1.30;0.50;;;;;;;25.08;42.20;99749.19;10499356;28;20056;-76
2023/07/21 12:03:27;;;;;;;0.90;0.60;;;;;;;25.04;42.31;99753.63;10499568;28;20103;-75
2023/07/21 12:08:30;;;;;;;2.58;0.60;;;;;;;24.79;43.17;99756.56;10502968;28;20044;-74
2023/07/21 12:13:31;;;;;;;1.02;0.50;;;;;;;24.41;42.86;99756.19;10498576;28;20100;-73
2023/07/21 12:18:33;;;;;;;2.05;0.40;;;;;;;24.29;42.40;99762.00;10500132;28;20398;-74
2023/07/21 12:23:35;;;;;;;1.63;0.50;;;;;;;24.05;42.38;99764.59;10503342;28;20048;-73
2023/07/21 12:28:37;;;;;;;0.50;0.40;;;;;;;23.95;42.02;99765.44;10494497;28;20056;-75
2023/07/21 12:33:41;;;;;;;0.60;0.40;;;;;;;23.93;42.62;99775.88;10497281;28;20123;-76
2023/07/21 12:38:44;;;;;;;0.90;0.57;;;;;;;23.92;42.34;99780.56;10499528;28;20040;-74
2023/07/21 12:43:45;;;;;;;0.90;0.50;;;;;;;23.87;42.97;99779.75;10510482;28;20071;-73
2023/07/21 12:48:47;;;;;;;2.65;0.82;;;;;;;23.54;44.13;99792.97;10505394;28;20037;-74
2023/07/21 12:53:48;;;;;;;0.85;0.52;;;;;;;23.04;45.01;99800.06;10506991;28;20075;-75
2023/07/21 12:58:49;;;;;;;0.63;0.40;;;;;;;21.98;48.40;99811.97;10507262;28;20060;-77
2023/07/21 13:03:51;;;;;;;2.00;0.55;;;;;;;21.42;50.08;99811.53;10501961;28;20048;-80
2023/07/21 13:08:53;;;;;;;2.55;0.60;;;;;;;21.09;51.08;99816.19;10507787;28;20285;-77
2023/07/21 13:13:54;;;;;;;1.60;0.63;;;;;;;20.71;52.99;99820.69;10507880;28;20372;-80
2023/07/21 13:18:56;;;;;;;1.17;0.57;;;;;;;20.35;54.77;99825.69;10510915;28;20064;-80
2023/07/21 13:23:57;;;;;;;1.55;0.90;;;;;;;20.21;55.93;99835.34;10495420;28;20064;-79
2023/07/21 13:28:59;;;;;;;2.55;1.20;;;;;;;20.03;57.03;99831.00;10506918;28;20344;-79
2023/07/21 13:34:02;;;;;;;2.72;0.73;;;;;;;20.19;57.23;99830.13;10513431;28;20056;-77
2023/07/21 13:39:03;;;;;;;3.00;0.82;;;;;;;20.31;57.39;99849.13;10508696;28;20104;-77
2023/07/21 13:44:05;;;;;;;2.35;0.82;;;;;;;20.29;58.62;99851.28;10504321;28;20083;-76
2023/07/21 13:49:07;;;;;;;0.98;0.70;;;;;;;20.09;58.38;99848.28;10500397;28;20051;-79
2023/07/21 13:54:09;;;;;;;0.50;0.40;;;;;;;20.04;57.60;99853.66;10517456;28;20048;-77
2023/07/21 13:59:14;;;;;;;1.10;0.73;;;;;;;20.14;57.58;99848.34;10504173;28;20060;-77
2023/07/21 14:04:16;;;;;;;1.35;0.70;;;;;;;20.33;56.99;99840.69;10503201;28;20064;-76
2023/07/21 14:09:17;;;;;;;2.25;0.45;;;;;;;20.56;56.80;99850.56;10504711;28;20341;-78
2023/07/21 14:14:19;;;;;;;1.52;0.65;;;;;;;20.61;57.19;99864.28;10504226;28;20402;-76
2023/07/21 14:19:20;;;;;;;1.30;0.45;;;;;;;20.62;56.64;99865.94;10505243;28;20086;-75
2023/07/21 14:24:21;;;;;;;0.98;0.45;;;;;;;20.60;56.62;99860.72;10502608;28;20077;-72
2023/07/21 14:29:23;;;;;;;1.83;0.40;;;;;;;20.75;55.88;99865.56;10507261;28;20040;-75
2023/07/21 14:34:24;;;;;;;1.88;0.40;;;;;;;20.64;56.27;99865.69;10502355;28;20049;-77
2023/07/21 14:39:26;;;;;;;2.03;0.55;;;;;;;20.62;55.95;99860.47;10503149;28;20051;-77
2023/07/21 14:44:27;;;;;;;1.20;0.40;;;;;;;20.64;56.38;99863.78;10507401;28;20127;-75
2023/07/21 14:49:29;;;;;;;2.63;0.50;;;;;;;20.69;55.51;99857.53;10510535;28;20071;-75
2023/07/21 14:54:30;;;;;;;0.70;0.20;;;;;;;20.72;55.09;99865.25;10502103;28;20048;-73
2023/07/21 14:59:32;;;;;;;0.30;0.20;;;;;;;20.84;53.82;99860.47;10504879;28;20041;-73
2023/07/21 15:04:34;;;;;;;0.28;0.15;;;;;;;20.84;53.17;99856.91;10500053;28;20074;-74
2023/07/21 15:09:37;;;;;;;0.20;0.20;;;;;;;20.86;53.89;99852.84;10477252;28;20055;-75
2023/07/21 15:14:40;;;;;;;0.20;0.15;;;;;;;20.69;54.42;99855.63;10512744;28;20360;-78
2023/07/21 15:19:42;;;;;;;0.40;0.30;;;;;;;20.95;53.65;99853.19;10504331;28;20076;-76
2023/07/21 15:25:03;;;;;;;0.47;0.20;;;;;;;21.30;53.03;99851.91;10503214;28;20052;-76
2023/07/21 15:30:06;;;;;;;0.40;0.20;;;;;;;21.46;52.19;99850.97;10509191;28;20423;-74
2023/07/21 15:35:08;;;;;;;0.28;0.13;;;;;;;21.57;51.37;99855.47;10498081;28;20266;-75
2023/07/21 15:40:11;;;;;;;0.30;0.30;;;;;;;21.84;51.45;99831.84;10505843;28;20284;-75
2023/07/21 15:45:13;;;;;;;0.50;0.20;;;;;;;22.11;51.62;99848.16;10498361;28;20076;-76
2023/07/21 15:50:15;;;;;;;0.73;0.30;;;;;;;22.50;51.17;99845.13;10496173;28;20051;-77
2023/07/21 15:55:16;;;;;;;1.98;0.22;;;;;;;22.74;50.72;99826.28;10498352;28;20217;-76
2023/07/21 16:00:19;;;;;;;0.40;0.40;;;;;;;23.01;49.97;99842.53;10504486;28;20130;-77
2023/07/21 16:05:20;;;;;;;2.83;0.30;;;;;;;23.60;49.81;99834.91;10500177;28;20107;-76
2023/07/21 16:10:22;;;;;;;0.77;0.30;;;;;;;24.67;48.02;99831.94;10495532;28;20109;-76
2023/07/21 16:15:25;;;;;;;0.47;0.20;;;;;;;25.81;45.32;99832.81;10501898;28;20076;-76
2023/07/21 16:20:26;;;;;;;0.57;0.25;;;;;;;26.59;44.22;99835.56;10500350;28;20064;-76
2023/07/21 16:25:28;;;;;;;1.90;0.40;;;;;;;26.89;43.91;99826.06;10501944;28;20286;-76
2023/07/21 16:30:29;;;;;;;1.38;0.22;;;;;;;27.40;42.54;99839.09;10500644;28;20071;-76
2023/07/21 16:35:32;;;;;;;0.55;0.40;;;;;;;27.65;41.48;99831.53;10511717;28;20119;-77
2023/07/21 16:40:34;;;;;;;1.42;0.20;;;;;;;27.30;40.90;99833.75;10511869;28;20044;-77
2023/07/21 16:45:35;;;;;;;0.95;0.25;;;;;;;27.29;40.96;99827.41;10506385;28;20051;-76
2023/07/21 16:50:40;;;;;;;0.40;0.40;;;;;;;27.01;40.51;99834.69;10509914;28;20058;-75
2023/07/21 16:55:41;;;;;;;1.67;0.30;;;;;;;26.64;40.42;99835.50;10510496;28;20300;-75
2023/07/21 17:00:43;;;;;;;1.15;0.20;;;;;;;26.33;40.29;99835.88;10506093;28;20100;-72
2023/07/21 17:05:44;;;;;;;0.63;0.32;;;;;;;26.15;40.68;99837.44;10506789;28;20111;-75
2023/07/21 17:10:45;;;;;;;1.00;0.35;;;;;;;25.72;40.65;99835.34;10510307;28;20690;-76
2023/07/21 17:15:49;;;;;;;0.60;0.50;;;;;;;25.54;40.53;99833.31;10506704;28;20073;-74
2023/07/21 17:20:53;;;;;;;0.63;0.30;;;;;;;25.51;41.07;99837.50;10506782;28;20102;-74
2023/07/21 17:25:54;;;;;;;1.35;0.40;;;;;;;25.31;41.27;99834.88;10508777;28;20070;-75
2023/07/21 17:30:56;;;;;;;3.05;0.60;;;;;;;24.96;41.69;99830.41;10505040;28;20075;-74
2023/07/21 17:35:57;;;;;;;1.23;0.50;;;;;;;24.87;41.45;99831.00;10504928;28;20104;-73
2023/07/21 17:41:00;;;;;;;1.70;0.40;;;;;;;24.68;42.45;99843.75;10504548;28;20108;-73
2023/07/21 17:46:03;;;;;;;2.42;0.40;;;;;;;24.50;43.51;99850.69;10516440;28;20143;-70
2023/07/21 17:51:04;;;;;;;3.13;0.40;;;;;;;23.91;44.14;99940.91;10503849;28;20067;-73
2023/07/21 17:56:06;;;;;;;8.95;0.95;;;;;;;21.37;51.85;99972.84;10504116;28;20216;-71
2023/07/21 18:01:07;;;;;;;0.93;0.70;;;;;;;19.30;57.81;99948.13;10510330;28;20059;-73
2023/07/21 18:06:09;;;;;;;3.70;1.33;;;;;;;17.98;61.88;99957.75;10505810;28;20305;-72
2023/07/21 18:11:10;;;;;;;3.97;0.50;;;;;;;17.43;63.90;99965.03;10502816;28;20107;-74
2023/07/21 18:16:14;;;;;;;1.92;0.40;;;;;;;17.47;63.62;99954.53;10489777;28;20074;-77
2023/07/21 18:21:16;;;;;;;3.30;0.60;;;;;;;17.39;64.54;99957.56;10506543;28;20123;-74
2023/07/21 18:26:18;;;;;;;2.33;0.50;;;;;;;17.61;65.14;99964.16;10505831;28;20052;-73
2023/07/21 18:31:19;;;;;;;1.85;0.90;;;;;;;17.68;66.35;99965.94;10505728;28;20078;-71
2023/07/21 18:36:21;;;;;;;3.92;0.90;;;;;;;17.69;67.02;99964.88;10506443;28;20048;-69
2023/07/21 18:41:22;;;;;;;5.38;0.80;;;;;;;17.67;68.03;99967.81;10495376;28;20375;-73
2023/07/21 18:46:24;;;;;;;3.25;1.05;;;;;;;17.57;68.60;99979.25;10501579;28;20292;-75
2023/07/21 18:51:25;;;;;;;3.67;1.00;;;;;;;17.60;68.62;99999.72;10499553;28;20048;-76
2023/07/21 18:56:27;;;;;;;5.18;1.02;;;;;;;17.48;69.56;99999.69;10502385;28;20424;-76
2023/07/21 19:01:30;;;;;;;3.78;1.00;;;;;;;17.42;69.80;99993.28;10498924;28;20060;-74
2023/07/21 19:06:32;;;;;;;2.75;0.90;;;;;;;17.30;70.15;99997.84;10515182;28;20119;-73
2023/07/21 19:11:33;;;;;;;7.28;0.75;;;;;;;17.21;70.59;100007.34;10510721;28;20044;-74
2023/07/21 19:16:35;;;;;;;2.38;0.65;;;;;;;17.16;70.62;100005.31;10494609;28;20040;-75
2023/07/21 19:21:36;;;;;;;3.53;0.93;;;;;;;17.16;70.71;100010.75;10509601;28;20044;-72
2023/07/21 19:26:38;;;;;;;2.47;0.80;;;;;;;16.99;71.40;100023.28;10505919;28;20055;-72
2023/07/21 19:31:41;;;;;;;4.78;1.20;;;;;;;17.12;71.53;100028.56;10506445;28;20325;-78
2023/07/21 19:36:43;;;;;;;3.28;0.98;;;;;;;17.26;71.16;100026.50;10502136;28;20366;-76
2023/07/21 19:41:48;;;;;;;4.72;1.00;;;;;;;17.32;71.34;100036.47;10501836;28;20290;-75
2023/07/21 19:46:49;;;;;;;4.75;1.08;;;;;;;17.35;71.56;100041.44;10505776;28;20044;-75
2023/07/21 19:51:51;;;;;;;4.07;0.82;;;;;;;17.22;71.72;100047.88;10498635;28;20040;-73
2023/07/21 19:56:53;;;;;;;4.60;0.95;;;;;;;17.20;71.62;100055.41;10498549;28;20048;-74
2023/07/21 20:01:54;;;;;;;1.33;0.73;;;;;;;17.12;71.75;100055.72;10499564;28;20059;-80
2023/07/21 20:06:56;;;;;;;2.97;1.05;;;;;;;17.13;71.58;100064.69;10505097;28;20044;-76
2023/07/21 20:11:57;;;;;;;4.10;1.80;;;;;;;17.07;72.28;100069.13;10499645;28;20040;-75
2023/07/21 20:16:58;;;;;;;2.15;1.13;;;;;;;17.18;71.96;100076.53;10503520;28;20071;-77
2023/07/21 20:22:00;;;;;;;2.33;1.10;;;;;;;17.23;72.11;100071.25;10505196;28;20060;-76
2023/07/21 20:27:01;;;;;;;3.70;1.70;;;;;;;17.24;71.94;100082.97;10502990;28;20115;-76
2023/07/21 20:32:03;;;;;;;4.43;1.63;;;;;;;17.25;72.06;100084.59;10500518;28;20139;-75
2023/07/21 20:37:06;;;;;;;5.00;1.52;;;;;;;17.20;72.08;100088.00;10500506;28;20086;-75
2023/07/21 20:42:08;;;;;;;4.43;1.52;;;;;;;17.24;71.92;100089.22;10495815;28;20044;-76
2023/07/21 20:47:10;;;;;;;4.38;1.05;;;;;;;17.02;71.79;100096.13;10499162;28;20048;-78
2023/07/21 20:52:12;;;;;;;2.80;1.17;;;;;;;17.22;70.91;100112.25;10501146;28;20048;-74
2023/07/21 20:57:13;;;;;;;4.13;1.83;;;;;;;17.30;70.71;100116.53;10500144;28;20044;-74
2023/07/21 21:02:14;;;;;;;1.25;0.93;;;;;;;17.37;70.02;100106.41;10504344;28;20048;-76
2023/07/21 21:07:16;;;;;;;2.60;1.25;;;;;;;17.49;69.14;100120.91;10501603;28;20310;-77
2023/07/21 21:12:19;;;;;;;3.25;1.98;;;;;;;17.63;68.91;100135.16;10499975;28;20248;-78
2023/07/21 21:17:21;;;;;;;3.83;2.20;;;;;;;17.71;68.80;100153.06;10506451;28;20297;-79
2023/07/21 21:22:22;;;;;;;4.25;2.00;;;;;;;17.73;68.76;100142.78;10509395;28;20044;-78
2023/07/21 21:27:24;;;;;;;4.88;1.88;;;;;;;17.85;68.47;100151.84;10508948;28;20076;-79
2023/07/21 21:32:25;;;;;;;6.28;2.08;;;;;;;17.80;68.96;100151.69;10507361;28;20106;-79
2023/07/21 21:37:27;;;;;;;4.25;2.40;;;;;;;17.82;68.88;100152.28;10514827;28;20064;-77
2023/07/21 21:42:28;;;;;;;5.32;2.58;;;;;;;17.78;69.45;100168.22;10505951;28;20048;-76
2023/07/21 21:47:29;;;;;;;7.05;3.17;;;;;;;17.91;68.92;100159.13;10509100;28;20075;-76
2023/07/21 21:52:31;;;;;;;5.43;3.05;;;;;;;17.94;69.04;100164.09;10512261;28;20062;-76
2023/07/21 21:57:32;;;;;;;4.53;2.53;;;;;;;17.88;69.18;100169.63;10505223;28;20131;-75
2023/07/21 22:02:34;;;;;;;5.38;3.70;;;;;;;17.97;69.33;100163.63;10487444;28;20059;-76
2023/07/21 22:07:35;;;;;;;5.78;3.72;;;;;;;17.98;69.50;100164.47;10507161;28;20044;-77
2023/07/21 22:12:37;;;;;;;9.23;3.70;;;;;;;17.98;69.32;100156.31;10505735;28;20269;-77
2023/07/21 22:17:38;;;;;;;5.25;3.60;;;;;;;18.01;69.59;100159.41;10506119;28;20044;-79
2023/07/21 22:22:41;;;;;;;7.97;3.97;;;;;;;18.06;69.34;100155.16;10511154;28;20049;-72
2023/07/21 22:27:42;;;;;;;8.27;3.40;;;;;;;18.07;69.14;100159.53;10506333;28;20049;-71
2023/07/21 22:32:43;;;;;;;6.30;3.17;;;;;;;18.01;69.36;100167.56;10502413;28;20052;-72
2023/07/21 22:37:45;;;;;;;6.35;3.20;;;;;;;17.98;69.41;100161.75;10503968;28;20414;-71
2023/07/21 22:42:47;;;;;;;6.70;4.22;;;;;;;17.90;69.53;100167.50;10501801;28;20048;-71
2023/07/21 22:47:48;;;;;;;8.40;5.30;;;;;;;17.92;69.54;100177.09;10504184;28;20036;-72
2023/07/21 22:52:50;;;;;;;7.07;4.35;;;;;;;17.79;69.44;100182.66;10484374;28;20068;-71
2023/07/21 22:57:51;;;;;;;6.93;4.10;;;;;;;17.78;69.47;100181.00;10502824;28;20454;-72
2023/07/21 23:02:53;;;;;;;12.55;5.03;;;;;;;17.74;69.62;100187.97;10504774;28;20058;-73
2023/07/21 23:07:54;;;;;;;8.73;4.25;;;;;;;17.67;69.76;100188.00;10500586;28;20056;-71
2023/07/21 23:12:56;;;;;;;8.98;4.93;;;;;;;17.56;69.79;100189.63;10502427;28;20072;-72
2023/07/21 23:17:57;;;;;;;7.57;4.47;;;;;;;17.49;69.83;100190.72;10502459;28;20104;-72
2023/07/21 23:23:00;;;;;;;6.05;4.10;;;;;;;17.54;69.72;100196.34;10504602;28;20115;-72